Wetterdaten: Woche 17.01.22 - 23.01.22 (KW3)
Datum Zeit Temp. Aussen Temp. o. S. Temp +5cm Feuchte Auss Luftdruck Regen Sonnenschein Regendauer Solar Windben Empfang
17.01.2022 00:00 4,3 C 3,9 C 3,3 C 99 % 1030,7 hPa 0,4 l/m 0,00 h 0,27 h 0 W/m 14,1 km/h (3 Bft) 95,94 %
17.01.2022 01:00 4,4 C 3,9 C 3,4 C 99 % 1031,2 hPa 0,0 l/m 0,00 h 0,00 h 0 W/m 10,7 km/h (2 Bft) 97,64 %
17.01.2022 02:00 4,6 C 3,9 C 3,9 C 99 % 1031,4 hPa 0,0 l/m 0,00 h 0,00 h 0 W/m 11,2 km/h (2 Bft) 96,92 %
17.01.2022 03:00 4,8 C 4,3 C 3,9 C 99 % 1031,5 hPa 0,0 l/m 0,00 h 0,00 h 0 W/m 10,8 km/h (2 Bft) 96,61 %
17.01.2022 04:00 4,8 C 4,3 C 4,0 C 99 % 1031,4 hPa 0,0 l/m 0,00 h 0,00 h 0 W/m 10,3 km/h (2 Bft) 95,89 %
17.01.2022 05:00 4,7 C 4,3 C 3,9 C 99 % 1031,7 hPa 0,0 l/m 0,00 h 0,00 h 0 W/m 8,3 km/h (2 Bft) 99,23 %
17.01.2022 06:00 4,4 C 3,9 C 3,8 C 99 % 1032,0 hPa 0,0 l/m 0,00 h 0,00 h 0 W/m 7,6 km/h (2 Bft) 95,03 %
17.01.2022 07:00 4,5 C 3,9 C 3,9 C 99 % 1032,1 hPa 0,0 l/m 0,00 h 0,00 h 0 W/m 7,7 km/h (2 Bft) 99,14 %
17.01.2022 08:00 4,6 C 3,9 C 3,9 C 99 % 1032,3 hPa 0,0 l/m 0,00 h 0,00 h 10 W/m 13,5 km/h (3 Bft) 97,22 %
17.01.2022 09:00 4,9 C 4,5 C 4,2 C 98 % 1032,7 hPa 0,0 l/m 0,00 h 0,00 h 27 W/m 16,0 km/h (3 Bft) 95,42 %
17.01.2022 10:00 5,5 C 5,1 C 5,0 C 98 % 1033,0 hPa 0,0 l/m 0,10 h 0,00 h 59 W/m 14,7 km/h (3 Bft) 97,53 %
17.01.2022 11:00 6,0 C 5,6 C 5,3 C 97 % 1033,6 hPa 0,2 l/m 0,00 h 0,37 h 68 W/m 16,3 km/h (3 Bft) 97,37 %
17.01.2022 12:00 6,0 C 5,6 C 5,0 C 97 % 1033,9 hPa 0,0 l/m 0,00 h 0,17 h 54 W/m 15,1 km/h (3 Bft) 97,86 %
17.01.2022 13:00 6,2 C 5,9 C 5,0 C 97 % 1033,8 hPa 0,0 l/m 0,00 h 0,13 h 66 W/m 16,1 km/h (3 Bft) 97,51 %
17.01.2022 14:00 6,3 C 6,1 C 5,3 C 97 % 1033,9 hPa 0,0 l/m 0,00 h 0,07 h 45 W/m 13,0 km/h (3 Bft) 98,01 %
17.01.2022 15:00 6,6 C 6,1 C 5,6 C 97 % 1033,9 hPa 0,0 l/m 0,00 h 0,00 h 41 W/m 15,2 km/h (3 Bft) 97,16 %
17.01.2022 16:00 6,8 C 6,2 C 5,7 C 97 % 1034,7 hPa 0,0 l/m 0,03 h 0,00 h 14 W/m 9,7 km/h (2 Bft) 97,29 %
17.01.2022 17:00 6,9 C 6,3 C 5,6 C 96 % 1035,3 hPa 0,0 l/m 0,00 h 0,00 h 0 W/m 10,9 km/h (2 Bft) 98,46 %
17.01.2022 18:00 7,0 C 6,5 C 5,7 C 96 % 1035,8 hPa 0,0 l/m 0,00 h 0,00 h 0 W/m 10,0 km/h (2 Bft) 95,38 %
17.01.2022 19:00 7,0 C 6,5 C 5,6 C 96 % 1036,2 hPa 0,0 l/m 0,00 h 0,00 h 0 W/m 9,8 km/h (2 Bft) 96,79 %
17.01.2022 20:00 6,7 C 6,0 C 5,2 C 96 % 1036,6 hPa 0,0 l/m 0,00 h 0,00 h 0 W/m 6,9 km/h (2 Bft) 99,07 %
17.01.2022 21:00 6,2 C 5,6 C 4,5 C 96 % 1037,3 hPa 0,0 l/m 0,00 h 0,00 h 0 W/m 7,9 km/h (2 Bft) 95,41 %
17.01.2022 22:00 6,2 C 5,6 C 4,9 C 97 % 1037,6 hPa 0,0 l/m 0,00 h 0,00 h 0 W/m 3,8 km/h (1 Bft) 97,39 %
17.01.2022 23:00 6,3 C 5,9 C 5,0 C 97 % 1037,4 hPa 0,0 l/m 0,00 h 0,00 h 0 W/m 7,1 km/h (2 Bft) 96,79 %
18.01.2022 00:00 6,3 C 5,6 C 5,0 C 97 % 1037,7 hPa 0,0 l/m 0,00 h 0,00 h 0 W/m 6,2 km/h (2 Bft) 96,16 %
18.01.2022 01:00 6,3 C 5,6 C 5,0 C 97 % 1037,9 hPa 0,0 l/m 0,00 h 0,00 h 0 W/m 5,5 km/h (1 Bft) 96,92 %
18.01.2022 02:00 6,3 C 5,6 C 5,0 C 97 % 1038,2 hPa 0,0 l/m 0,00 h 0,00 h 0 W/m 4,5 km/h (1 Bft) 98,80 %
18.01.2022 03:00 6,1 C 5,4 C 4,9 C 97 % 1038,2 hPa 0,0 l/m 0,00 h 0,00 h 0 W/m 3,0 km/h (1 Bft) 95,69 %
18.01.2022 04:00 5,9 C 5,0 C 4,8 C 97 % 1038,3 hPa 0,0 l/m 0,00 h 0,00 h 0 W/m 3,0 km/h (1 Bft) 97,75 %
18.01.2022 05:00 5,7 C 5,0 C 4,4 C 98 % 1038,3 hPa 0,0 l/m 0,00 h 0,00 h 0 W/m 3,4 km/h (1 Bft) 96,87 %
18.01.2022 06:00 5,6 C 5,0 C 4,4 C 98 % 1038,4 hPa 0,0 l/m 0,00 h 0,00 h 0 W/m 2,3 km/h (1 Bft) 95,76 %
18.01.2022 07:00 5,4 C 4,5 C 4,4 C 98 % 1038,6 hPa 0,0 l/m 0,00 h 0,00 h 0 W/m 1,2 km/h (1 Bft) 97,72 %
18.01.2022 08:00 5,3 C 4,6 C 4,4 C 98 % 1038,9 hPa 0,0 l/m 0,00 h 0,00 h 8 W/m 2,7 km/h (1 Bft) 98,37 %
18.01.2022 09:00 5,5 C 5,0 C 4,8 C 99 % 1039,2 hPa 0,0 l/m 0,00 h 0,00 h 22 W/m 3,0 km/h (1 Bft) 96,92 %
18.01.2022 10:00 5,8 C 5,8 C 5,4 C 99 % 1039,4 hPa 0,0 l/m 0,00 h 0,00 h 77 W/m 4,6 km/h (1 Bft) 95,44 %
18.01.2022 11:00 6,3 C 7,1 C 6,4 C 99 % 1039,5 hPa 0,0 l/m 0,03 h 0,00 h 139 W/m 4,7 km/h (1 Bft) 98,48 %
18.01.2022 12:00 6,8 C 8,7 C 7,0 C 99 % 1039,1 hPa 0,0 l/m 0,27 h 0,00 h 168 W/m 5,6 km/h (1 Bft) 98,01 %
18.01.2022 13:00 8,3 C 14,7 C 7,5 C 96 % 1038,7 hPa 0,0 l/m 1,00 h 0,00 h 254 W/m 4,7 km/h (1 Bft) 96,80 %
18.01.2022 14:00 8,4 C 8,6 C 7,2 C 90 % 1038,2 hPa 0,0 l/m 0,03 h 0,00 h 96 W/m 3,2 km/h (1 Bft) 96,52 %
18.01.2022 15:00 7,8 C 6,9 C 5,6 C 90 % 1037,7 hPa 0,0 l/m 0,00 h 0,00 h 40 W/m 0,6 km/h (0 Bft) 98,34 %
18.01.2022 16:00 7,0 C 5,3 C 4,3 C 90 % 1037,2 hPa 0,0 l/m 0,00 h 0,00 h 16 W/m 0,0 km/h (0 Bft) 97,43 %
18.01.2022 17:00 5,6 C 3,2 C 2,6 C 90 % 1037,0 hPa 0,0 l/m 0,00 h 0,00 h 5 W/m 0,0 km/h (0 Bft) 97,65 %
18.01.2022 18:00 4,5 C 3,5 C 2,6 C 93 % 1036,9 hPa 0,0 l/m 0,00 h 0,00 h 0 W/m 0,0 km/h (0 Bft) 96,42 %
18.01.2022 19:00 5,2 C 4,8 C 3,8 C 95 % 1036,5 hPa 0,0 l/m 0,00 h 0,00 h 0 W/m 0,4 km/h (0 Bft) 96,77 %
18.01.2022 20:00 5,6 C 5,0 C 4,2 C 96 % 1036,2 hPa 0,0 l/m 0,00 h 0,00 h 0 W/m 1,3 km/h (1 Bft) 98,54 %
18.01.2022 21:00 4,9 C 3,5 C 2,7 C 95 % 1035,6 hPa 0,0 l/m 0,00 h 0,00 h 0 W/m 0,5 km/h (0 Bft) 95,67 %
18.01.2022 22:00 3,6 C 2,2 C 1,6 C 94 % 1035,1 hPa 0,0 l/m 0,00 h 0,00 h 0 W/m 0,2 km/h (0 Bft) 98,86 %
18.01.2022 23:00 3,0 C 1,7 C 1,2 C 95 % 1034,2 hPa 0,0 l/m 0,00 h 0,00 h 0 W/m 1,9 km/h (1 Bft) 97,70 %
19.01.2022 00:00 2,1 C 0,7 C 0,2 C 95 % 1033,3 hPa 0,0 l/m 0,00 h 0,00 h 0 W/m 1,4 km/h (1 Bft) 95,48 %
19.01.2022 01:00 2,0 C 0,8 C 0,5 C 96 % 1032,1 hPa 0,0 l/m 0,00 h 0,00 h 0 W/m 3,3 km/h (1 Bft) 94,74 %
19.01.2022 02:00 1,3 C -0,1 C -0,6 C 95 % 1031,6 hPa 0,0 l/m 0,00 h 0,00 h 0 W/m 0,4 km/h (0 Bft) 97,98 %
19.01.2022 03:00 1,6 C 1,6 C 0,8 C 96 % 1030,6 hPa 0,0 l/m 0,00 h 0,00 h 0 W/m 5,2 km/h (1 Bft) 98,20 %
19.01.2022 04:00 2,4 C 2,2 C 1,4 C 97 % 1029,5 hPa 0,0 l/m 0,00 h 0,00 h 0 W/m 12,5 km/h (3 Bft) 96,85 %
19.01.2022 05:00 2,7 C 2,2 C 1,9 C 96 % 1029,3 hPa 0,0 l/m 0,00 h 0,00 h 0 W/m 13,5 km/h (3 Bft) 96,53 %
19.01.2022 06:00 2,9 C 2,8 C 2,2 C 95 % 1028,5 hPa 0,0 l/m 0,00 h 0,00 h 0 W/m 14,6 km/h (3 Bft) 98,41 %
19.01.2022 07:00 3,1 C 2,8 C 2,2 C 94 % 1028,0 hPa 0,0 l/m 0,00 h 0,00 h 0 W/m 10,1 km/h (2 Bft) 96,25 %
19.01.2022 08:00 3,2 C 2,8 C 2,2 C 93 % 1027,5 hPa 0,0 l/m 0,00 h 0,00 h 6 W/m 6,9 km/h (2 Bft) 98,08 %
19.01.2022 09:00 3,4 C 2,9 C 2,2 C 93 % 1027,1 hPa 0,0 l/m 0,00 h 0,00 h 13 W/m 9,7 km/h (2 Bft) 99,01 %
19.01.2022 10:00 3,6 C 3,3 C 2,2 C 92 % 1026,5 hPa 0,0 l/m 0,00 h 0,00 h 25 W/m 12,2 km/h (3 Bft) 94,97 %
19.01.2022 11:00 3,8 C 3,7 C 2,7 C 92 % 1025,7 hPa 0,0 l/m 0,00 h 0,00 h 63 W/m 9,9 km/h (2 Bft) 99,51 %
19.01.2022 12:00 4,1 C 3,9 C 2,8 C 91 % 1024,8 hPa 0,0 l/m 0,00 h 0,00 h 51 W/m 11,3 km/h (2 Bft) 94,51 %
19.01.2022 13:00 4,2 C 3,9 C 2,8 C 90 % 1023,8 hPa 0,0 l/m 0,00 h 0,00 h 43 W/m 12,9 km/h (3 Bft) 94,59 %
19.01.2022 14:00 4,2 C 3,9 C 2,3 C 91 % 1022,9 hPa 0,0 l/m 0,00 h 0,00 h 27 W/m 15,7 km/h (3 Bft) 98,73 %
19.01.2022 15:00 4,1 C 3,7 C 2,1 C 93 % 1022,1 hPa 0,0 l/m 0,00 h 0,00 h 18 W/m 19,5 km/h (3 Bft) 97,35 %
19.01.2022 16:00 3,8 C 3,3 C 1,7 C 95 % 1021,6 hPa 0,2 l/m 0,00 h 0,00 h 8 W/m 17,0 km/h (3 Bft) 96,21 %
19.01.2022 17:00 3,9 C 3,3 C 2,0 C 97 % 1021,3 hPa 0,0 l/m 0,00 h 0,40 h 0 W/m 15,2 km/h (3 Bft) 97,13 %
19.01.2022 18:00 4,2 C 3,4 C 2,2 C 97 % 1021,3 hPa 0,2 l/m 0,00 h 0,07 h 0 W/m 16,3 km/h (3 Bft) 95,50 %
19.01.2022 19:00 4,4 C 3,9 C 2,7 C 98 % 1021,5 hPa 0,2 l/m 0,00 h 0,20 h 0 W/m 13,7 km/h (3 Bft) 96,95 %
19.01.2022 20:00 4,7 C 4,2 C 3,0 C 98 % 1021,7 hPa 0,0 l/m 0,00 h 0,00 h 0 W/m 12,0 km/h (2 Bft) 98,43 %
19.01.2022 21:00 5,0 C 4,4 C 3,3 C 98 % 1022,3 hPa 0,0 l/m 0,00 h 0,00 h 0 W/m 13,4 km/h (3 Bft) 95,71 %
19.01.2022 22:00 5,0 C 4,4 C 3,3 C 99 % 1023,1 hPa 0,2 l/m 0,00 h 0,00 h 0 W/m 10,0 km/h (2 Bft) 97,55 %
19.01.2022 23:00 4,6 C 3,9 C 3,1 C 98 % 1023,5 hPa 0,0 l/m 0,00 h 0,00 h 0 W/m 11,4 km/h (2 Bft) 94,85 %
20.01.2022 00:00 4,1 C 3,3 C 2,6 C 98 % 1024,0 hPa 0,0 l/m 0,00 h 0,00 h 0 W/m 10,1 km/h (2 Bft) 98,26 %
20.01.2022 01:00 3,2 C 2,5 C 1,9 C 97 % 1024,3 hPa 0,0 l/m 0,00 h 0,00 h 0 W/m 7,0 km/h (2 Bft) 93,64 %
20.01.2022 02:00 3,1 C 2,7 C 2,0 C 97 % 1024,6 hPa 0,0 l/m 0,00 h 0,07 h 0 W/m 8,9 km/h (2 Bft) 99,24 %
20.01.2022 03:00 3,3 C 2,8 C 2,1 C 97 % 1024,6 hPa 0,0 l/m 0,00 h 0,00 h 0 W/m 10,4 km/h (2 Bft) 96,38 %
20.01.2022 04:00 3,3 C 2,8 C 2,0 C 96 % 1024,4 hPa 0,0 l/m 0,00 h 0,00 h 0 W/m 12,9 km/h (3 Bft) 94,77 %
20.01.2022 05:00 3,2 C 2,6 C 1,9 C 96 % 1024,4 hPa 0,2 l/m 0,00 h 0,10 h 0 W/m 11,7 km/h (2 Bft) 96,71 %
20.01.2022 06:00 3,3 C 2,8 C 2,0 C 96 % 1024,8 hPa 0,0 l/m 0,00 h 0,27 h 0 W/m 16,8 km/h (3 Bft) 97,07 %
20.01.2022 07:00 3,3 C 2,8 C 2,2 C 96 % 1025,6 hPa 0,0 l/m 0,00 h 0,10 h 0 W/m 15,6 km/h (3 Bft) 98,51 %
20.01.2022 08:00 2,9 C 2,3 C 1,8 C 94 % 1026,7 hPa 0,0 l/m 0,00 h 0,03 h 10 W/m 14,7 km/h (3 Bft) 95,67 %
20.01.2022 09:00 2,7 C 2,6 C 1,9 C 93 % 1027,4 hPa 0,0 l/m 0,20 h 0,03 h 51 W/m 15,7 km/h (3 Bft) 99,36 %
20.01.2022 10:00 3,0 C 2,9 C 2,0 C 88 % 1028,1 hPa 0,0 l/m 0,23 h 0,23 h 94 W/m 17,9 km/h (3 Bft) 95,87 %
20.01.2022 11:00 2,8 C 3,0 C 1,4 C 90 % 1028,7 hPa 0,0 l/m 0,07 h 0,37 h 92 W/m 19,3 km/h (3 Bft) 95,95 %
20.01.2022 12:00 2,9 C 4,3 C 1,4 C 92 % 1028,8 hPa 0,0 l/m 0,33 h 0,00 h 162 W/m 14,9 km/h (3 Bft) 96,72 %
20.01.2022 13:00 4,4 C 7,7 C 2,4 C 85 % 1028,3 hPa 0,2 l/m 0,73 h 0,00 h 238 W/m 19,4 km/h (3 Bft) 98,23 %
20.01.2022 14:00 4,1 C 4,1 C 1,5 C 83 % 1028,3 hPa 0,0 l/m 0,00 h 0,00 h 76 W/m 22,0 km/h (4 Bft) 96,87 %
20.01.2022 15:00 3,8 C 4,0 C 1,1 C 84 % 1028,6 hPa 0,0 l/m 0,07 h 0,00 h 63 W/m 23,6 km/h (4 Bft) 98,21 %
20.01.2022 16:00 3,6 C 3,0 C 0,6 C 85 % 1028,9 hPa 0,0 l/m 0,00 h 0,17 h 17 W/m 16,5 km/h (3 Bft) 96,22 %
20.01.2022 17:00 2,3 C 1,6 C -0,6 C 92 % 1029,5 hPa 0,0 l/m 0,00 h 0,00 h 0 W/m 12,6 km/h (3 Bft) 96,25 %
20.01.2022 18:00 1,6 C 0,8 C -1,3 C 94 % 1030,0 hPa 0,0 l/m 0,00 h 0,00 h 0 W/m 7,2 km/h (2 Bft) 98,12 %
20.01.2022 19:00 1,0 C 0,3 C -1,7 C 95 % 1030,5 hPa 0,0 l/m 0,00 h 0,00 h 0 W/m 9,0 km/h (2 Bft) 96,39 %
20.01.2022 20:00 0,7 C 0,0 C -1,7 C 96 % 1031,0 hPa 0,0 l/m 0,00 h 0,00 h 0 W/m 8,4 km/h (2 Bft) 95,89 %
20.01.2022 21:00 0,5 C -0,3 C -2,0 C 96 % 1031,4 hPa 0,0 l/m 0,00 h 0,00 h 0 W/m 7,9 km/h (2 Bft) 98,18 %
20.01.2022 22:00 0,4 C -0,2 C -1,9 C 96 % 1032,0 hPa 0,0 l/m 0,00 h 0,00 h 0 W/m 11,9 km/h (2 Bft) 97,78 %
20.01.2022 23:00 0,2 C -0,6 C -2,1 C 96 % 1032,3 hPa 0,0 l/m 0,00 h 0,00 h 0 W/m 6,7 km/h (2 Bft) 97,21 %
21.01.2022 00:00 0,1 C -0,6 C -1,9 C 96 % 1032,9 hPa 0,0 l/m 0,00 h 0,00 h 0 W/m 7,0 km/h (2 Bft) 97,08 %
21.01.2022 01:00 0,1 C -0,6 C -1,8 C 96 % 1033,1 hPa 0,0 l/m 0,00 h 0,00 h 0 W/m 7,2 km/h (2 Bft) 98,22 %
21.01.2022 02:00 0,1 C -0,6 C -1,8 C 96 % 1033,2 hPa 0,0 l/m 0,00 h 0,00 h 0 W/m 6,6 km/h (2 Bft) 97,23 %
21.01.2022 03:00 0,1 C -0,4 C -1,6 C 96 % 1033,2 hPa 0,0 l/m 0,00 h 0,00 h 0 W/m 7,3 km/h (2 Bft) 95,50 %
21.01.2022 04:00 0,2 C -0,5 C -1,6 C 97 % 1033,4 hPa 0,0 l/m 0,00 h 0,00 h 0 W/m 8,3 km/h (2 Bft) 96,48 %
21.01.2022 05:00 0,5 C 0,0 C -1,1 C 97 % 1033,5 hPa 0,0 l/m 0,00 h 0,00 h 0 W/m 8,5 km/h (2 Bft) 97,93 %
21.01.2022 06:00 0,3 C -0,4 C -1,4 C 97 % 1033,6 hPa 0,0 l/m 0,00 h 0,00 h 0 W/m 6,0 km/h (2 Bft) 95,29 %
21.01.2022 07:00 -0,2 C -1,0 C -1,9 C 97 % 1033,9 hPa 0,0 l/m 0,00 h 0,00 h 0 W/m 4,6 km/h (1 Bft) 95,68 %
21.01.2022 08:00 -0,3 C -1,0 C -1,7 C 97 % 1034,3 hPa 0,0 l/m 0,00 h 0,00 h 10 W/m 4,4 km/h (1 Bft) 98,29 %
21.01.2022 09:00 -0,1 C -0,4 C -1,5 C 97 % 1034,5 hPa 0,0 l/m 0,07 h 0,00 h 36 W/m 4,5 km/h (1 Bft) 95,81 %
21.01.2022 10:00 1,0 C 1,2 C -0,4 C 98 % 1034,6 hPa 0,2 l/m 0,83 h 0,00 h 186 W/m 7,0 km/h (2 Bft) 99,37 %
21.01.2022 11:00 2,6 C 3,6 C 1,5 C 97 % 1034,8 hPa 0,0 l/m 0,20 h 0,00 h 144 W/m 8,6 km/h (2 Bft) 94,61 %
21.01.2022 12:00 4,0 C 4,5 C 2,7 C 94 % 1034,4 hPa 0,0 l/m 0,00 h 0,00 h 139 W/m 11,9 km/h (2 Bft) 98,98 %
21.01.2022 13:00 5,0 C 5,8 C 3,4 C 91 % 1034,0 hPa 0,0 l/m 0,23 h 0,00 h 140 W/m 10,4 km/h (2 Bft) 96,04 %
21.01.2022 14:00 5,2 C 4,8 C 3,1 C 91 % 1033,7 hPa 0,0 l/m 0,00 h 0,03 h 47 W/m 10,3 km/h (2 Bft) 96,41 %
21.01.2022 15:00 4,9 C 4,4 C 2,6 C 93 % 1033,5 hPa 0,0 l/m 0,00 h 0,00 h 21 W/m 7,5 km/h (2 Bft) 98,38 %
21.01.2022 16:00 5,0 C 4,4 C 2,4 C 95 % 1033,4 hPa 0,0 l/m 0,00 h 0,00 h 11 W/m 9,2 km/h (2 Bft) 95,98 %
21.01.2022 17:00 4,7 C 4,1 C 2,3 C 96 % 1033,2 hPa 0,0 l/m 0,00 h 0,00 h 0 W/m 6,7 km/h (2 Bft) 98,13 %
21.01.2022 18:00 4,8 C 4,4 C 2,6 C 96 % 1033,1 hPa 0,0 l/m 0,00 h 0,00 h 0 W/m 12,3 km/h (3 Bft) 97,74 %
21.01.2022 19:00 4,7 C 3,9 C 2,5 C 96 % 1033,5 hPa 0,0 l/m 0,00 h 0,23 h 0 W/m 11,9 km/h (2 Bft) 96,54 %
21.01.2022 20:00 4,3 C 3,7 C 2,2 C 96 % 1033,6 hPa 0,0 l/m 0,00 h 0,00 h 0 W/m 12,1 km/h (2 Bft) 98,60 %
21.01.2022 21:00 4,2 C 3,8 C 2,2 C 97 % 1033,9 hPa 0,0 l/m 0,00 h 0,00 h 0 W/m 12,2 km/h (2 Bft) 96,74 %
21.01.2022 22:00 4,0 C 3,3 C 2,2 C 97 % 1033,7 hPa 0,0 l/m 0,00 h 0,03 h 0 W/m 12,0 km/h (2 Bft) 98,36 %
21.01.2022 23:00 3,8 C 3,3 C 2,2 C 97 % 1033,5 hPa 0,0 l/m 0,00 h 0,00 h 0 W/m 13,6 km/h (3 Bft) 96,95 %
22.01.2022 00:00 3,7 C 3,3 C 2,2 C 97 % 1033,4 hPa 0,0 l/m 0,00 h 0,00 h 0 W/m 15,7 km/h (3 Bft) 97,18 %
22.01.2022 01:00 3,7 C 3,3 C 2,2 C 97 % 1033,4 hPa 0,0 l/m 0,00 h 0,00 h 0 W/m 12,7 km/h (3 Bft) 96,76 %
22.01.2022 02:00 3,6 C 2,9 C 2,0 C 97 % 1033,3 hPa 0,0 l/m 0,00 h 0,10 h 0 W/m 12,5 km/h (3 Bft) 95,95 %
22.01.2022 03:00 3,7 C 3,2 C 2,2 C 98 % 1033,2 hPa 0,0 l/m 0,00 h 0,00 h 0 W/m 11,6 km/h (2 Bft) 96,87 %
22.01.2022 04:00 3,7 C 3,3 C 2,2 C 98 % 1033,2 hPa 0,0 l/m 0,00 h 0,00 h 0 W/m 12,0 km/h (2 Bft) 95,29 %
22.01.2022 05:00 3,9 C 3,3 C 2,6 C 98 % 1033,3 hPa 0,0 l/m 0,00 h 0,00 h 0 W/m 9,8 km/h (2 Bft) 96,27 %
22.01.2022 06:00 4,2 C 3,9 C 2,8 C 98 % 1033,3 hPa 0,0 l/m 0,00 h 0,00 h 0 W/m 9,2 km/h (2 Bft) 99,56 %
22.01.2022 07:00 4,3 C 3,9 C 2,8 C 98 % 1033,6 hPa 0,0 l/m 0,00 h 0,00 h 0 W/m 9,2 km/h (2 Bft) 95,31 %
22.01.2022 08:00 4,3 C 3,9 C 2,8 C 98 % 1034,1 hPa 0,2 l/m 0,00 h 0,00 h 8 W/m 7,2 km/h (2 Bft) 98,55 %
22.01.2022 09:00 4,5 C 4,0 C 3,2 C 99 % 1034,3 hPa 0,0 l/m 0,00 h 0,00 h 23 W/m 7,7 km/h (2 Bft) 98,31 %
22.01.2022 10:00 4,8 C 4,4 C 3,5 C 99 % 1034,5 hPa 0,0 l/m 0,00 h 0,03 h 41 W/m 7,5 km/h (2 Bft) 96,28 %
22.01.2022 11:00 5,4 C 5,3 C 4,3 C 99 % 1034,7 hPa 0,0 l/m 0,03 h 0,00 h 70 W/m 9,0 km/h (2 Bft) 97,81 %
22.01.2022 12:00 5,5 C 5,3 C 4,4 C 99 % 1034,7 hPa 0,0 l/m 0,00 h 0,00 h 55 W/m 9,4 km/h (2 Bft) 98,97 %
22.01.2022 13:00 5,7 C 5,4 C 4,4 C 99 % 1034,6 hPa 0,0 l/m 0,00 h 0,00 h 41 W/m 7,6 km/h (2 Bft) 95,14 %
22.01.2022 14:00 5,7 C 5,0 C 4,4 C 99 % 1034,6 hPa 0,2 l/m 0,00 h 0,07 h 26 W/m 6,1 km/h (2 Bft) 99,08 %
22.01.2022 15:00 5,7 C 5,0 C 4,4 C 99 % 1034,6 hPa 0,0 l/m 0,00 h 0,00 h 11 W/m 9,5 km/h (2 Bft) 98,42 %
22.01.2022 16:00 5,6 C 5,0 C 4,4 C 99 % 1034,6 hPa 0,0 l/m 0,00 h 0,00 h 6 W/m 2,7 km/h (1 Bft) 99,12 %
22.01.2022 17:00 5,6 C 5,0 C 4,4 C 99 % 1034,9 hPa 0,0 l/m 0,00 h 0,00 h 0 W/m 6,4 km/h (2 Bft) 99,64 %
22.01.2022 18:00 5,3 C 5,0 C 4,4 C 99 % 1035,1 hPa 0,0 l/m 0,00 h 0,00 h 0 W/m 6,6 km/h (2 Bft) 97,72 %
22.01.2022 19:00 5,1 C 4,4 C 3,9 C 99 % 1035,3 hPa 0,0 l/m 0,00 h 0,00 h 0 W/m 7,2 km/h (2 Bft) 95,09 %
22.01.2022 20:00 5,0 C 4,4 C 3,9 C 98 % 1035,3 hPa 0,0 l/m 0,00 h 0,00 h 0 W/m 5,1 km/h (1 Bft) 97,50 %
22.01.2022 21:00 5,1 C 4,7 C 3,9 C 98 % 1035,4 hPa 0,0 l/m 0,00 h 0,00 h 0 W/m 5,6 km/h (1 Bft) 98,29 %
22.01.2022 22:00 5,0 C 4,4 C 3,8 C 97 % 1035,4 hPa 0,0 l/m 0,00 h 0,00 h 0 W/m 5,1 km/h (1 Bft) 96,44 %
22.01.2022 23:00 4,8 C 4,4 C 3,3 C 96 % 1035,4 hPa 0,0 l/m 0,00 h 0,00 h 0 W/m 5,5 km/h (1 Bft) 97,15 %
23.01.2022 00:00 4,8 C 4,4 C 3,3 C 96 % 1035,6 hPa 0,0 l/m 0,00 h 0,00 h 0 W/m 5,1 km/h (1 Bft) 98,24 %
23.01.2022 01:00 4,7 C 3,9 C 3,3 C 97 % 1035,7 hPa 0,0 l/m 0,00 h 0,00 h 0 W/m 2,9 km/h (1 Bft) 97,02 %
23.01.2022 02:00 4,6 C 3,9 C 3,3 C 97 % 1035,6 hPa 0,0 l/m 0,00 h 0,00 h 0 W/m 1,4 km/h (1 Bft) 96,73 %
23.01.2022 03:00 4,4 C 3,9 C 3,3 C 97 % 1035,4 hPa 0,0 l/m 0,00 h 0,00 h 0 W/m 0,0 km/h (0 Bft) 99,50 %
23.01.2022 04:00 4,4 C 3,9 C 3,3 C 98 % 1035,4 hPa 0,0 l/m 0,00 h 0,00 h 0 W/m 1,9 km/h (1 Bft) 94,87 %
23.01.2022 05:00 4,3 C 3,9 C 2,9 C 98 % 1035,6 hPa 0,0 l/m 0,00 h 0,00 h 0 W/m 0,2 km/h (0 Bft) 99,07 %
23.01.2022 06:00 4,3 C 3,9 C 3,1 C 98 % 1035,6 hPa 0,0 l/m 0,00 h 0,00 h 0 W/m 0,0 km/h (0 Bft) 97,66 %
23.01.2022 07:00 4,2 C 3,7 C 3,0 C 98 % 1035,8 hPa 0,0 l/m 0,00 h 0,00 h 0 W/m 0,0 km/h (0 Bft) 97,04 %
23.01.2022 08:00 4,2 C 3,6 C 3,1 C 98 % 1036,1 hPa 0,0 l/m 0,00 h 0,00 h 6 W/m 0,0 km/h (0 Bft) 97,54 %
23.01.2022 09:00 4,3 C 4,1 C 3,3 C 98 % 1036,6 hPa 0,0 l/m 0,00 h 0,00 h 19 W/m 0,0 km/h (0 Bft) 98,02 %
23.01.2022 10:00 4,6 C 4,6 C 3,9 C 98 % 1036,8 hPa 0,0 l/m 0,00 h 0,00 h 41 W/m 0,0 km/h (0 Bft) 96,90 %
23.01.2022 11:00 5,0 C 5,2 C 4,3 C 98 % 1037,0 hPa 0,0 l/m 0,00 h 0,00 h 67 W/m 0,0 km/h (0 Bft) 98,20 %
23.01.2022 12:00 5,4 C 5,6 C 4,6 C 98 % 1036,7 hPa 0,0 l/m 0,00 h 0,00 h 86 W/m 0,0 km/h (0 Bft) 97,02 %
23.01.2022 13:00 5,8 C 6,1 C 5,0 C 97 % 1036,3 hPa 0,0 l/m 0,00 h 0,00 h 94 W/m 0,0 km/h (0 Bft) 98,08 %
23.01.2022 14:00 6,2 C 6,1 C 5,0 C 95 % 1036,0 hPa 0,0 l/m 0,00 h 0,00 h 75 W/m 2,7 km/h (1 Bft) 97,65 %
23.01.2022 15:00 6,2 C 6,0 C 4,7 C 93 % 1035,9 hPa 0,0 l/m 0,00 h 0,00 h 52 W/m 4,9 km/h (1 Bft) 96,87 %
23.01.2022 16:00 6,0 C 5,5 C 4,3 C 93 % 1035,9 hPa 0,0 l/m 0,00 h 0,00 h 18 W/m 3,8 km/h (1 Bft) 97,37 %
23.01.2022 17:00 5,8 C 5,0 C 3,8 C 92 % 1036,0 hPa 0,0 l/m 0,00 h 0,00 h 0 W/m 3,0 km/h (1 Bft) 97,19 %
23.01.2022 18:00 5,6 C 4,8 C 3,3 C 93 % 1036,0 hPa 0,0 l/m 0,00 h 0,00 h 0 W/m 1,3 km/h (1 Bft) 95,99 %
23.01.2022 19:00 5,2 C 4,5 C 3,3 C 94 % 1036,0 hPa 0,0 l/m 0,00 h 0,00 h 0 W/m 1,7 km/h (1 Bft) 98,36 %
23.01.2022 20:00 4,9 C 4,4 C 2,8 C 92 % 1035,9 hPa 0,0 l/m 0,00 h 0,00 h 0 W/m 1,5 km/h (1 Bft) 94,93 %
23.01.2022 21:00 5,1 C 4,7 C 3,0 C 87 % 1035,7 hPa 0,0 l/m 0,00 h 0,00 h 0 W/m 6,2 km/h (2 Bft) 98,51 %
23.01.2022 22:00 5,2 C 4,4 C 2,8 C 87 % 1035,5 hPa 0,0 l/m 0,00 h 0,00 h 0 W/m 4,3 km/h (1 Bft) 96,59 %
23.01.2022 23:00 5,0 C 4,4 C 2,5 C 85 % 1035,5 hPa 0,0 l/m 0,00 h 0,00 h 0 W/m 6,0 km/h (2 Bft) 98,07 %
Min-Datum _ 21.01.22 21.01.22 20.01.22 20.01.22 19.01.22 - - - - 17.01.22 19.01.22
_ Min-Zeit 07:16 01:54 21:28 14:06 17:14 - - - - 22:40 12:38
Minimum _ -0,3 C -1,1 C -2,2 C 79 % 1021,2 hPa - - - - 0,0 km/h (0 Bft) 23,08 %
Max-Datum _ 18.01.22 18.01.22 18.01.22 17.01.22 18.01.22 17.01.22 17.01.22 20.01.22 20.01.22 20.01.22 17.01.22
_ Max-Zeit 13:36 13:18 13:14 00:00 11:10 00:14 10:02 06:08 13:30 15:18 00:02
Maximum _ 8,8 C 20,0 C 7,8 C 99 % 1039,6 hPa 0,4 l/m 0,03 h 0,07 h 412 W/m 41,8 km/h
N (6 Bft)
100,00 %
Durchschnitt _ 4,3 C 3,9 C 2,8 C 96 % 1032,7 hPa #2,4 l/m #4:28 h #3:32 h 58 W/m 8,2 km/h (2 Bft) 97,14 %
© 2022 W. Hausmann